»·PEaware :: N168JC KVNY-KSLC

N168JC :: KVNY-KSLC

FLIGHT INFORMATION

Flight Status: Arrived
Operator: Privately registered:
United States
More flights under this callsign
Pilot: Chris A. (85)
Aircraft: EMBRAER PHENOM 300
(E55P)
More flights by this aircraft type
Origin: KVNY Van Nuys
United States
Destination: KSLC Salt Lake City Intl
United States
More flights between these airports :: More routes between these airports
Route: +NUAL9 DAG LAS MLF DELTA5
File this flight plan on PilotEdge
Remarks: PBN / B2B3B4C1D1O1S2 DOF / 180501 SUR / 260B CODE / 050210
Altitude:
(Current/Filed)
41,000ft
Speed:
(Current/Filed)
418kts
Departed: 30-Apr-18 04:35 PM
Arrived: 30-Apr-18 06:00 PM
Distance/Time
Traveled:
502nm/1:25
Distance/Time
To Go:
Arrived

Flight Plot

Page will automatically refresh every two minutes.

Flight plan parsing failed; only flown route is shown


Map Options




Map Legend


Flown Route
Filed Route
Departure Airport
Arrival Airport
Navaid (VOR, NDB)
Fix

Horizontal Profiles

Position Reports

Time Latitude Longitude Heading Altitude Ground
Speed
30-Apr-18 16:18 34.206122 -118.487976 177 805ft 0kts
30-Apr-18 16:19 34.206122 -118.487976 177 805ft 0kts
30-Apr-18 16:20 34.206122 -118.487976 177 805ft 0kts
30-Apr-18 16:21 34.206122 -118.487976 177 805ft 0kts
30-Apr-18 16:22 34.206122 -118.487976 177 805ft 0kts
30-Apr-18 16:23 34.206122 -118.487976 177 805ft 0kts
30-Apr-18 16:24 34.206122 -118.487976 177 805ft 0kts
30-Apr-18 16:25 34.206122 -118.487976 177 805ft 0kts
30-Apr-18 16:26 34.206122 -118.487976 177 805ft 0kts
30-Apr-18 16:27 34.206122 -118.487976 177 805ft 0kts
30-Apr-18 16:28 34.206121 -118.487976 177 805ft 0kts
30-Apr-18 16:29 34.206925 -118.488287 3 805ft 11kts
30-Apr-18 16:30 34.210534 -118.488425 354 805ft 11kts
30-Apr-18 16:31 34.213441 -118.488724 355 805ft 11kts
30-Apr-18 16:32 34.217346 -118.489381 356 805ft 16kts
30-Apr-18 16:33 34.218753 -118.491166 228 805ft 6kts
30-Apr-18 16:34 34.194098 -118.488254 172 1916ft 151kts
30-Apr-18 16:35 34.162989 -118.447733 124 3740ft 213kts
30-Apr-18 16:36 34.149503 -118.375679 51 5395ft 269kts
30-Apr-18 16:37 34.212287 -118.330626 28 7950ft 252kts
30-Apr-18 16:38 34.277959 -118.288764 24 10686ft 298kts
30-Apr-18 16:39 34.356805 -118.238822 22 12593ft 344kts
30-Apr-18 16:40 34.444816 -118.182806 22 13506ft 361kts
30-Apr-18 16:41 34.535566 -118.124941 21 16113ft 372kts
30-Apr-18 16:42 34.624210 -118.059940 48 18676ft 389kts
30-Apr-18 16:43 34.644247 -117.931197 77 21483ft 390kts
30-Apr-18 16:44 34.660058 -117.799743 79 23773ft 395kts
30-Apr-18 16:45 34.687709 -117.671540 66 25970ft 393kts
30-Apr-18 16:46 34.720410 -117.543896 66 27898ft 400kts
30-Apr-18 16:47 34.753527 -117.413835 65 29700ft 403kts
30-Apr-18 16:48 34.786551 -117.283492 65 31495ft 403kts
30-Apr-18 16:49 34.819088 -117.154404 64 33284ft 395kts
30-Apr-18 16:50 34.850898 -117.027637 64 34941ft 388kts
30-Apr-18 16:51 34.882193 -116.902312 64 36338ft 386kts
30-Apr-18 16:52 34.913085 -116.777932 64 37734ft 379kts
30-Apr-18 16:53 34.943182 -116.656232 65 38995ft 373kts
30-Apr-18 16:54 34.986018 -116.548122 31 40113ft 335kts
30-Apr-18 16:55 35.051725 -116.466924 33 40866ft 341kts
30-Apr-18 16:56 35.120622 -116.381030 34 40869ft 365kts
30-Apr-18 16:57 35.193417 -116.289869 35 40868ft 382kts
30-Apr-18 16:58 35.269049 -116.194886 36 40869ft 397kts
30-Apr-18 16:59 35.347230 -116.096427 36 40857ft 410kts
30-Apr-18 17:00 35.427786 -115.994673 37 40856ft 420kts
30-Apr-18 17:01 35.509790 -115.890777 37 40856ft 428kts
30-Apr-18 17:02 35.593186 -115.784786 38 40855ft 435kts
30-Apr-18 17:03 35.677944 -115.676717 38 40850ft 441kts
30-Apr-18 17:04 35.763360 -115.567456 38 40829ft 446kts
30-Apr-18 17:05 35.849532 -115.456861 38 40830ft 450kts
30-Apr-18 17:06 35.933511 -115.348720 39 40831ft 453kts
30-Apr-18 17:07 36.020761 -115.236002 39 40820ft 456kts
30-Apr-18 17:08 36.113120 -115.129182 28 40797ft 449kts
30-Apr-18 17:09 36.214146 -115.037620 29 40817ft 451kts
30-Apr-18 17:10 36.315249 -114.945486 29 40823ft 452kts
30-Apr-18 17:11 36.416951 -114.852506 29 40823ft 454kts
30-Apr-18 17:12 36.518474 -114.759379 29 40825ft 454kts
30-Apr-18 17:13 36.620085 -114.665860 29 40828ft 455kts
30-Apr-18 17:14 36.722134 -114.571623 30 40829ft 456kts
30-Apr-18 17:15 36.823839 -114.477385 30 40844ft 456kts
30-Apr-18 17:16 36.925544 -114.382828 30 40849ft 456kts
30-Apr-18 17:17 37.027589 -114.287625 30 40865ft 456kts
30-Apr-18 17:18 37.129295 -114.192420 31 40861ft 458kts
30-Apr-18 17:19 37.231781 -114.096147 32 40860ft 461kts
30-Apr-18 17:20 37.334392 -113.999416 32 40863ft 462kts
30-Apr-18 17:21 37.437291 -113.902072 32 40867ft 464kts
30-Apr-18 17:22 37.540692 -113.803905 33 40874ft 465kts
30-Apr-18 17:23 37.643824 -113.705645 33 40884ft 465kts
30-Apr-18 17:24 37.746933 -113.607054 33 40907ft 465kts
30-Apr-18 17:25 37.850333 -113.507833 33 40908ft 466kts
30-Apr-18 17:26 37.953424 -113.408546 33 40912ft 466kts
30-Apr-18 17:27 38.056859 -113.308568 33 40917ft 466kts
30-Apr-18 17:28 38.159844 -113.208657 34 40923ft 466kts
30-Apr-18 17:29 38.262723 -113.108484 34 40929ft 466kts
30-Apr-18 17:30 38.367156 -113.010345 23 40932ft 462kts
30-Apr-18 17:31 38.484384 -112.946422 18 40933ft 459kts
30-Apr-18 17:32 38.601527 -112.881665 19 40936ft 459kts
30-Apr-18 17:33 38.719122 -112.816695 19 40942ft 459kts
30-Apr-18 17:34 38.836345 -112.752052 19 40950ft 459kts
30-Apr-18 17:35 38.954063 -112.687434 19 40958ft 459kts
30-Apr-18 17:36 39.072181 -112.622881 19 40051ft 466kts
30-Apr-18 17:37 39.190973 -112.557830 18 38251ft 464kts
30-Apr-18 17:38 39.310237 -112.492099 18 36400ft 468kts
30-Apr-18 17:39 39.430222 -112.425080 18 34408ft 472kts
30-Apr-18 17:40 39.550776 -112.356191 18 32413ft 476kts
30-Apr-18 17:41 39.671830 -112.285828 18 30269ft 471kts
30-Apr-18 17:42 39.790023 -112.216430 19 27304ft 461kts
30-Apr-18 17:43 39.905964 -112.150390 19 24309ft 449kts
30-Apr-18 17:44 40.019730 -112.087982 19 21304ft 437kts
30-Apr-18 17:45 40.130385 -112.027356 19 18324ft 426kts
30-Apr-18 17:46 40.237256 -111.968646 19 15705ft 402kts
30-Apr-18 17:47 40.338375 -111.921000 355 13329ft 364kts
30-Apr-18 17:48 40.427526 -111.955213 341 12598ft 323kts
30-Apr-18 17:49 40.513184 -111.986123 342 11595ft 314kts
30-Apr-18 17:50 40.593135 -112.016639 340 10622ft 301kts
30-Apr-18 17:51 40.671612 -112.047277 342 10555ft 282kts
30-Apr-18 17:52 40.749989 -112.071090 352 10587ft 297kts
30-Apr-18 17:53 40.834745 -112.075470 358 8770ft 300kts
30-Apr-18 17:54 40.897881 -112.036111 70 7761ft 249kts
30-Apr-18 17:55 40.890302 -111.963727 158 6598ft 170kts
30-Apr-18 17:56 40.846527 -111.961347 181 5354ft 141kts
30-Apr-18 17:58 40.810961 -111.962219 178 4505ft 119kts
30-Apr-18 17:59 40.783714 -111.962080 180 4230ft 51kts
30-Apr-18 18:00 40.782304 -111.960135 136 4230ft 10kts
30-Apr-18 18:01 40.778588 -111.960122 174 4230ft 8kts
30-Apr-18 18:02 40.776448 -111.959008 179 4230ft 6kts
30-Apr-18 18:03 40.776327 -111.959007 179 4230ft 0kts
30-Apr-18 18:04 40.776327 -111.959007 179 4230ft 0kts

Navigation Log

Ident Type
Flight plan parsing failed, navigation log unavailable